createdAt,value
2019-04-28T00:01:24.267Z,50.20
2019-04-28T00:03:52.986Z,50.20
2019-04-28T00:06:21.654Z,50.30
2019-04-28T00:08:51.795Z,50.50
2019-04-28T00:11:21.769Z,50.00
2019-04-28T00:13:51.829Z,50.20
2019-04-28T00:16:22.833Z,50.00
2019-04-28T00:18:51.719Z,50.00
2019-04-28T00:21:31.934Z,50.20
2019-04-28T00:24:11.524Z,50.20
2019-04-28T00:26:47.694Z,49.90
2019-04-28T00:29:16.383Z,50.20
2019-04-28T00:31:45.063Z,50.20
2019-04-28T00:34:13.775Z,50.00
2019-04-28T00:36:44.239Z,50.00
2019-04-28T00:39:12.943Z,50.00
2019-04-28T00:41:42.172Z,49.90
2019-04-28T00:44:11.974Z,50.10
2019-04-28T00:46:42.634Z,49.80
2019-04-28T00:49:11.830Z,50.10
2019-04-28T00:51:41.532Z,50.20
2019-04-28T00:54:12.127Z,50.00
2019-04-28T00:56:41.818Z,50.00
2019-04-28T00:59:11.965Z,50.20
2019-04-28T01:01:45.246Z,50.20
2019-04-28T01:04:13.935Z,49.80
2019-04-28T01:06:43.031Z,49.60
2019-04-28T01:09:12.078Z,49.80
2019-04-28T01:11:41.496Z,49.90
2019-04-28T01:14:11.490Z,49.40
2019-04-28T01:17:00.593Z,50.20
2019-04-28T01:19:36.822Z,49.80
2019-04-28T01:22:10.394Z,49.80
2019-04-28T01:24:40.386Z,49.90
2019-04-28T01:27:27.125Z,50.00
2019-04-28T01:30:07.608Z,49.90
2019-04-28T01:32:30.724Z,49.70
2019-04-28T01:34:59.871Z,49.90
2019-04-28T01:37:29.589Z,50.50
2019-04-28T01:39:59.680Z,49.70
2019-04-28T01:42:30.127Z,49.70
2019-04-28T01:45:00.638Z,50.00
2019-04-28T01:47:30.566Z,49.90
2019-04-28T01:50:01.731Z,49.90
2019-04-28T01:52:30.375Z,49.80
2019-04-28T01:55:00.448Z,49.90
2019-04-28T01:57:29.887Z,49.80
2019-04-28T01:59:59.786Z,49.80
2019-04-28T02:02:30.051Z,49.70
2019-04-28T02:04:59.964Z,49.40
2019-04-28T02:07:30.703Z,49.20
2019-04-28T02:10:00.723Z,49.10
2019-04-28T02:12:30.435Z,49.30
2019-04-28T02:15:00.899Z,49.20
2019-04-28T02:17:30.628Z,49.10
2019-04-28T02:20:00.728Z,49.50
2019-04-28T02:22:32.169Z,49.40
2019-04-28T02:25:01.284Z,49.20
2019-04-28T02:27:30.285Z,49.20
2019-04-28T02:30:00.067Z,49.30
2019-04-28T02:32:30.980Z,49.60
2019-04-28T02:35:01.148Z,49.20
2019-04-28T02:37:30.544Z,49.40
2019-04-28T02:40:02.819Z,49.30
2019-04-28T02:42:30.896Z,49.40
2019-04-28T02:45:00.726Z,49.50
2019-04-28T02:47:31.559Z,49.30
2019-04-28T02:50:04.373Z,49.30
2019-04-28T02:52:46.387Z,49.70
2019-04-28T02:55:15.069Z,49.30
2019-04-28T02:57:43.774Z,49.10
2019-04-28T03:00:12.674Z,48.90
2019-04-28T03:02:41.776Z,48.90
2019-04-28T03:05:11.619Z,48.90
2019-04-28T03:07:41.088Z,48.70
2019-04-28T03:10:10.953Z,48.70
2019-04-28T03:12:41.408Z,48.60
2019-04-28T03:15:10.719Z,48.80
2019-04-28T03:17:40.661Z,48.90
2019-04-28T03:20:11.013Z,48.90
2019-04-28T03:22:40.766Z,48.90
2019-04-28T03:25:11.630Z,49.10
2019-04-28T03:27:41.898Z,49.00
2019-04-28T03:30:33.245Z,49.00
2019-04-28T03:33:10.996Z,49.10
2019-04-28T03:35:32.567Z,49.30
2019-04-28T03:38:01.444Z,49.10
2019-04-28T03:40:33.419Z,48.70
2019-04-28T03:43:03.120Z,49.10
2019-04-28T03:45:35.552Z,48.80
2019-04-28T03:48:04.432Z,48.80
2019-04-28T03:50:33.143Z,48.80
2019-04-28T03:53:01.856Z,48.70
2019-04-28T03:55:31.715Z,48.90
2019-04-28T03:58:01.128Z,48.70
2019-04-28T04:00:31.150Z,49.10
2019-04-28T04:03:00.930Z,49.20
2019-04-28T04:05:30.622Z,49.00
2019-04-28T04:08:00.837Z,48.90
2019-04-28T04:10:40.545Z,48.90
2019-04-28T04:13:11.132Z,48.90
2019-04-28T04:15:54.457Z,48.80
2019-04-28T04:18:25.467Z,49.10
2019-04-28T04:20:54.201Z,48.90
2019-04-28T04:23:23.547Z,49.20
2019-04-28T04:25:52.462Z,49.10
2019-04-28T04:28:21.310Z,49.10
2019-04-28T04:30:50.781Z,49.00
2019-04-28T04:33:20.812Z,49.20
2019-04-28T04:35:51.683Z,49.00
2019-04-28T04:38:21.735Z,49.30
2019-04-28T04:40:51.546Z,49.00
2019-04-28T04:43:23.011Z,48.80
2019-04-28T04:45:52.530Z,49.10
2019-04-28T04:48:21.704Z,49.00
2019-04-28T04:50:51.038Z,49.00
2019-04-28T04:53:20.791Z,48.90
2019-04-28T04:55:50.524Z,49.00
2019-04-28T04:58:21.356Z,49.00
2019-04-28T05:01:07.926Z,49.00
2019-04-28T05:03:39.727Z,49.00
2019-04-28T05:06:26.442Z,48.90
2019-04-28T05:08:55.138Z,49.30
2019-04-28T05:11:23.808Z,49.10
2019-04-28T05:13:52.475Z,49.40
2019-04-28T05:16:21.171Z,49.50
2019-04-28T05:18:49.974Z,49.60
2019-04-28T05:21:19.222Z,49.40
2019-04-28T05:23:51.069Z,49.20
2019-04-28T05:26:23.232Z,49.10
2019-04-28T05:28:53.400Z,49.00
2019-04-28T05:31:24.311Z,49.00
2019-04-28T05:33:52.644Z,49.10
2019-04-28T05:36:23.323Z,49.20
2019-04-28T05:38:52.023Z,49.20
2019-04-28T05:41:20.727Z,49.10
2019-04-28T05:43:50.454Z,49.20
2019-04-28T05:46:19.707Z,49.00
2019-04-28T05:48:52.737Z,49.10
2019-04-28T05:51:29.913Z,49.10
2019-04-28T05:54:00.286Z,49.00
2019-04-28T05:56:30.528Z,49.00
2019-04-28T05:59:00.990Z,49.00
2019-04-28T06:01:47.677Z,49.80
2019-04-28T06:04:19.843Z,49.00
2019-04-28T06:06:49.990Z,49.10
2019-04-28T06:09:20.366Z,49.10
2019-04-28T06:11:49.598Z,49.30
2019-04-28T06:14:19.889Z,48.90
2019-04-28T06:16:50.580Z,49.10
2019-04-28T06:19:20.174Z,49.10
2019-04-28T06:21:49.053Z,48.90
2019-04-28T06:24:17.722Z,48.90
2019-04-28T06:26:46.430Z,49.10
2019-04-28T06:29:15.104Z,49.10
2019-04-28T06:31:43.803Z,49.00
2019-04-28T06:34:12.495Z,48.70
2019-04-28T06:36:41.190Z,49.10
2019-04-28T06:39:10.325Z,49.30
2019-04-28T06:41:39.221Z,49.10
2019-04-28T06:44:07.874Z,48.70
2019-04-28T06:46:36.588Z,48.90
2019-04-28T06:49:05.572Z,49.00
2019-04-28T06:51:34.568Z,49.10
2019-04-28T06:54:03.240Z,48.80
2019-04-28T06:56:31.937Z,48.80
2019-04-28T06:59:00.612Z,48.80
2019-04-28T07:01:29.527Z,48.90
2019-04-28T07:03:58.332Z,49.00
2019-04-28T07:06:27.078Z,49.10
2019-04-28T07:08:55.758Z,48.50
2019-04-28T07:11:24.466Z,48.60
2019-04-28T07:13:53.184Z,48.30
2019-04-28T07:16:21.908Z,48.10
2019-04-28T07:18:50.623Z,48.30
2019-04-28T07:21:32.943Z,47.90
2019-04-28T07:24:01.646Z,47.80
2019-04-28T07:26:30.379Z,47.90
2019-04-28T07:28:59.136Z,47.80
2019-04-28T07:31:27.878Z,47.50
2019-04-28T07:33:56.608Z,47.60
2019-04-28T07:36:25.454Z,48.00
2019-04-28T07:38:54.255Z,47.70
2019-04-28T07:41:23.170Z,47.50
2019-04-28T07:43:51.869Z,48.00
2019-04-28T07:46:20.544Z,47.60
2019-04-28T07:48:49.256Z,47.70
2019-04-28T07:51:20.217Z,47.50
2019-04-28T07:53:53.535Z,47.10
2019-04-28T07:56:22.215Z,47.10
2019-04-28T07:58:50.923Z,47.20
2019-04-28T08:01:19.816Z,47.10
2019-04-28T08:03:49.545Z,47.20
2019-04-28T08:06:19.093Z,47.00
2019-04-28T08:08:47.810Z,47.20
2019-04-28T08:11:16.485Z,47.00
2019-04-28T08:13:45.400Z,47.00
2019-04-28T08:16:14.070Z,47.00
2019-04-28T08:18:42.790Z,46.60
2019-04-28T08:21:11.469Z,46.40
2019-04-28T08:23:47.080Z,46.60
2019-04-28T08:26:10.750Z,46.60
2019-04-28T08:28:39.574Z,46.40
2019-04-28T08:31:10.245Z,46.70
2019-04-28T08:33:40.489Z,46.20
2019-04-28T08:36:09.196Z,46.20
2019-04-28T08:38:37.887Z,46.40
2019-04-28T08:41:06.788Z,46.40
2019-04-28T08:43:35.489Z,45.80
2019-04-28T08:46:04.163Z,45.40
2019-04-28T08:48:33.180Z,45.40
2019-04-28T08:51:01.851Z,45.60
2019-04-28T08:53:30.660Z,45.90
2019-04-28T08:55:59.342Z,46.10
2019-04-28T08:58:28.033Z,45.80
2019-04-28T09:00:56.739Z,45.30
2019-04-28T09:03:25.518Z,45.20
2019-04-28T09:05:54.336Z,45.00
2019-04-28T09:08:23.178Z,44.90
2019-04-28T09:10:51.901Z,45.10
2019-04-28T09:13:20.603Z,45.30
2019-04-28T09:15:49.295Z,44.80
2019-04-28T09:18:18.069Z,44.70
2019-04-28T09:20:46.736Z,44.30
2019-04-28T09:23:15.429Z,44.90
2019-04-28T09:25:44.120Z,44.30
2019-04-28T09:28:12.807Z,44.10
2019-04-28T09:30:41.471Z,44.20
2019-04-28T09:33:10.176Z,44.00
2019-04-28T09:35:38.864Z,44.70
2019-04-28T09:38:07.553Z,44.50
2019-04-28T09:40:36.299Z,43.90
2019-04-28T09:43:09.354Z,43.30
2019-04-28T09:45:39.597Z,43.40
2019-04-28T09:48:08.476Z,43.20
2019-04-28T09:50:37.136Z,42.30
2019-04-28T09:53:05.802Z,42.80
2019-04-28T09:55:34.603Z,42.50
2019-04-28T09:58:03.273Z,42.70
2019-04-28T10:00:31.934Z,42.20
2019-04-28T10:03:00.654Z,42.00
2019-04-28T10:05:29.330Z,42.20
2019-04-28T10:07:58.061Z,42.00
2019-04-28T10:10:26.760Z,41.80
2019-04-28T10:12:55.540Z,41.30
2019-04-28T10:15:24.405Z,41.80
2019-04-28T10:17:53.100Z,42.20
2019-04-28T10:20:22.481Z,41.90
2019-04-28T10:22:51.167Z,41.80
2019-04-28T10:25:21.264Z,41.60
2019-04-28T10:27:50.201Z,40.90
2019-04-28T10:30:18.971Z,40.80
2019-04-28T10:32:47.926Z,40.90
2019-04-28T10:35:16.931Z,40.90
2019-04-28T10:37:45.758Z,40.40
2019-04-28T10:40:36.968Z,40.20
2019-04-28T10:43:05.736Z,40.40
2019-04-28T10:45:47.954Z,40.40
2019-04-28T10:48:16.630Z,40.50
2019-04-28T10:50:45.311Z,40.50
2019-04-28T10:53:13.999Z,40.50
2019-04-28T10:55:42.774Z,40.50
2019-04-28T10:58:11.738Z,40.70
2019-04-28T11:00:41.547Z,40.50
2019-04-28T11:03:10.228Z,41.00
2019-04-28T11:05:45.934Z,41.10
2019-04-28T11:08:24.856Z,41.60
2019-04-28T11:10:54.053Z,42.80
2019-04-28T11:13:24.893Z,42.60
2019-04-28T11:15:53.589Z,43.70
2019-04-28T11:18:22.266Z,43.90
2019-04-28T11:20:50.953Z,44.60
2019-04-28T11:23:19.634Z,44.80
2019-04-28T11:25:48.347Z,45.00
2019-04-28T11:28:17.057Z,45.60
2019-04-28T11:30:46.054Z,45.40
2019-04-28T11:33:22.318Z,45.60
2019-04-28T11:35:51.747Z,45.40
2019-04-28T11:38:20.423Z,45.40
2019-04-28T11:40:49.126Z,45.40
2019-04-28T11:43:17.816Z,46.10
2019-04-28T11:45:46.493Z,46.00
2019-04-28T11:48:15.432Z,46.30
2019-04-28T11:50:44.137Z,46.20
2019-04-28T11:53:12.851Z,46.40
2019-04-28T11:55:41.526Z,45.80
2019-04-28T11:58:10.408Z,45.70
2019-04-28T12:00:39.083Z,45.60
2019-04-28T12:03:07.792Z,45.50
2019-04-28T12:05:40.796Z,45.80
2019-04-28T12:08:09.486Z,45.90
2019-04-28T12:10:45.854Z,45.30
2019-04-28T12:13:25.179Z,44.90
2019-04-28T12:16:10.835Z,44.50
2019-04-28T12:18:41.077Z,44.90
2019-04-28T12:21:09.748Z,44.20
2019-04-28T12:23:38.496Z,44.00
2019-04-28T12:26:07.369Z,44.50
2019-04-28T12:28:36.067Z,44.50
2019-04-28T12:31:04.736Z,44.50
2019-04-28T12:33:33.447Z,44.50
2019-04-28T12:36:02.131Z,44.30
2019-04-28T12:38:31.375Z,43.80
2019-04-28T12:41:00.052Z,43.90
2019-04-28T12:43:28.717Z,44.20
2019-04-28T12:45:57.415Z,43.90
2019-04-28T12:48:26.116Z,44.00
2019-04-28T12:50:54.779Z,44.00
2019-04-28T12:53:23.575Z,44.20
2019-04-28T12:55:52.253Z,43.70
2019-04-28T12:58:20.962Z,43.30
2019-04-28T13:00:53.695Z,43.40
2019-04-28T13:03:33.391Z,43.40
2019-04-28T13:06:05.780Z,42.70
2019-04-28T13:08:34.040Z,42.80
2019-04-28T13:11:02.876Z,42.90
2019-04-28T13:13:31.530Z,42.40
2019-04-28T13:16:00.212Z,42.70
2019-04-28T13:18:28.914Z,42.40
2019-04-28T13:20:59.016Z,41.90
2019-04-28T13:23:27.862Z,42.10
2019-04-28T13:25:56.829Z,41.80
2019-04-28T13:28:25.570Z,41.90
2019-04-28T13:30:54.328Z,41.70
2019-04-28T13:33:23.022Z,41.40
2019-04-28T13:35:51.719Z,41.10
2019-04-28T13:38:20.467Z,41.40
2019-04-28T13:40:49.220Z,41.20
2019-04-28T13:43:17.922Z,42.00
2019-04-28T13:45:46.609Z,42.20
2019-04-28T13:48:15.421Z,41.20
2019-04-28T13:50:44.159Z,40.70
2019-04-28T13:53:13.110Z,40.80
2019-04-28T13:55:46.158Z,40.70
2019-04-28T13:58:16.653Z,41.00
2019-04-28T14:00:57.227Z,41.00
2019-04-28T14:03:39.534Z,41.10
2019-04-28T14:06:28.057Z,41.00
2019-04-28T14:08:49.164Z,40.90
2019-04-28T14:11:19.545Z,41.30
2019-04-28T14:13:48.272Z,41.20
2019-04-28T14:16:17.008Z,41.40
2019-04-28T14:18:45.788Z,41.50
2019-04-28T14:21:14.561Z,41.60
2019-04-28T14:23:43.330Z,41.30
2019-04-28T14:26:12.441Z,41.20
2019-04-28T14:28:41.161Z,41.30
2019-04-28T14:31:09.820Z,40.80
2019-04-28T14:33:38.562Z,41.00
2019-04-28T14:36:07.256Z,40.70
2019-04-28T14:38:36.002Z,40.30
2019-04-28T14:41:04.671Z,40.30
2019-04-28T14:43:33.364Z,40.70
2019-04-28T14:46:02.134Z,39.80
2019-04-28T14:48:30.887Z,39.90
2019-04-28T14:50:59.590Z,40.00
2019-04-28T14:53:28.353Z,39.70
2019-04-28T14:55:57.165Z,38.40
2019-04-28T14:58:25.921Z,38.10
2019-04-28T15:01:11.070Z,38.00
2019-04-28T15:03:41.395Z,38.10
2019-04-28T15:06:17.874Z,37.50
2019-04-28T15:08:48.134Z,37.60
2019-04-28T15:11:18.403Z,37.70
2019-04-28T15:13:47.461Z,38.20
2019-04-28T15:16:16.163Z,37.70
2019-04-28T15:18:44.866Z,37.80
2019-04-28T15:21:13.631Z,37.60
2019-04-28T15:23:42.610Z,37.90
2019-04-28T15:26:11.457Z,37.10
2019-04-28T15:28:40.195Z,37.00
2019-04-28T15:31:10.787Z,36.60
2019-04-28T15:33:39.597Z,37.10
2019-04-28T15:36:08.299Z,37.00
2019-04-28T15:38:36.986Z,36.80
2019-04-28T15:41:05.660Z,36.80
2019-04-28T15:43:34.711Z,36.90
2019-04-28T15:46:03.614Z,36.10
2019-04-28T15:48:32.315Z,36.30
2019-04-28T15:51:01.028Z,36.60
2019-04-28T15:53:30.283Z,36.30
2019-04-28T15:56:00.540Z,36.30
2019-04-28T15:58:31.184Z,36.70
2019-04-28T16:01:00.226Z,37.00
2019-04-28T16:03:28.894Z,36.90
2019-04-28T16:05:59.887Z,36.40
2019-04-28T16:08:28.068Z,36.60
2019-04-28T16:10:56.745Z,36.10
2019-04-28T16:13:25.593Z,36.40
2019-04-28T16:15:54.336Z,36.00
2019-04-28T16:18:23.036Z,36.10
2019-04-28T16:20:51.817Z,35.40
2019-04-28T16:23:20.521Z,35.60
2019-04-28T16:25:49.269Z,35.80
2019-04-28T16:28:17.945Z,35.80
2019-04-28T16:30:46.615Z,35.50
2019-04-28T16:33:15.331Z,35.90
2019-04-28T16:35:44.027Z,35.40
2019-04-28T16:38:12.824Z,35.40
2019-04-28T16:40:43.052Z,35.40
2019-04-28T16:43:11.984Z,35.30
2019-04-28T16:48:20.599Z,34.70
2019-04-28T16:50:49.285Z,35.00
2019-04-28T16:53:17.966Z,35.00
2019-04-28T16:55:48.258Z,35.40
2019-04-28T16:58:24.152Z,35.70
2019-04-28T17:00:57.182Z,35.50
2019-04-28T17:03:27.412Z,35.60
2019-04-28T17:05:56.131Z,35.30
2019-04-28T17:08:24.829Z,35.30
2019-04-28T17:10:53.496Z,35.70
2019-04-28T17:13:22.215Z,36.00
2019-04-28T17:15:50.966Z,35.80
2019-04-28T17:18:19.640Z,34.80
2019-04-28T17:20:48.355Z,34.80
2019-04-28T17:23:17.047Z,34.90
2019-04-28T17:25:45.773Z,34.90
2019-04-28T17:28:14.461Z,35.00
2019-04-28T17:30:43.431Z,35.00
2019-04-28T17:33:12.134Z,34.80
2019-04-28T17:35:40.847Z,34.90
2019-04-28T17:38:09.678Z,35.00
2019-04-28T17:40:40.830Z,34.90
2019-04-28T17:43:09.731Z,34.90
2019-04-28T17:45:38.940Z,34.80
2019-04-28T17:48:12.151Z,34.80
2019-04-28T17:50:41.081Z,35.00
2019-04-28T17:53:09.789Z,35.40
2019-04-28T17:55:39.056Z,35.70
2019-04-28T17:58:07.850Z,36.10
2019-04-28T18:00:55.907Z,35.90
2019-04-28T18:03:28.776Z,35.60
2019-04-28T18:06:17.665Z,34.80
2019-04-28T18:08:40.175Z,34.80
2019-04-28T18:11:08.911Z,35.30
2019-04-28T18:13:37.611Z,35.50
2019-04-28T18:16:24.961Z,34.80
2019-04-28T18:19:13.282Z,35.20
2019-04-28T18:21:42.034Z,35.20
2019-04-28T18:24:10.749Z,35.30
2019-04-28T18:26:39.480Z,35.40
2019-04-28T18:29:09.239Z,35.20
2019-04-28T18:31:56.119Z,35.10
2019-04-28T18:34:41.484Z,35.70
2019-04-28T18:37:11.735Z,36.20
2019-04-28T18:39:58.287Z,36.70
2019-04-28T18:42:28.549Z,37.10
2019-04-28T18:44:57.235Z,37.40
2019-04-28T18:47:25.932Z,37.90
2019-04-28T18:49:54.656Z,38.30
2019-04-28T18:52:23.318Z,39.00
2019-04-28T18:54:52.042Z,39.10
2019-04-28T18:57:20.711Z,38.80
2019-04-28T18:59:49.722Z,38.90
2019-04-28T19:02:22.866Z,39.20
2019-04-28T19:04:51.669Z,39.00
2019-04-28T19:07:28.181Z,39.10
2019-04-28T19:09:58.482Z,39.30
2019-04-28T19:12:31.331Z,39.10
2019-04-28T19:15:17.568Z,39.40
2019-04-28T19:17:47.878Z,39.30
2019-04-28T19:20:16.589Z,39.20
2019-04-28T19:22:46.489Z,39.40
2019-04-28T19:25:15.213Z,39.50
2019-04-28T19:27:43.970Z,39.40
2019-04-28T19:30:12.994Z,39.60
2019-04-28T19:32:43.508Z,39.80
2019-04-28T19:35:12.219Z,39.80
2019-04-28T19:37:40.996Z,40.00
2019-04-28T19:40:10.362Z,40.30
2019-04-28T19:42:39.064Z,40.20
2019-04-28T19:45:12.031Z,40.30
2019-04-28T19:47:40.898Z,40.30
2019-04-28T19:50:10.007Z,40.50
2019-04-28T19:52:40.903Z,40.70
2019-04-28T19:55:16.980Z,40.60
2019-04-28T19:57:53.293Z,40.90
2019-04-28T20:00:35.611Z,41.10
2019-04-28T20:03:04.284Z,41.20
2019-04-28T20:05:33.204Z,41.10
2019-04-28T20:08:01.895Z,41.10
2019-04-28T20:10:30.616Z,41.70
2019-04-28T20:12:59.359Z,41.70
2019-04-28T20:15:28.053Z,42.00
2019-04-28T20:17:56.904Z,41.90
2019-04-28T20:20:25.620Z,41.80
2019-04-28T20:22:54.305Z,41.90
2019-04-28T20:25:23.015Z,42.10
2019-04-28T20:27:51.790Z,41.90
2019-04-28T20:30:20.500Z,42.40
2019-04-28T20:32:49.238Z,42.50
2019-04-28T20:35:19.523Z,42.30
2019-04-28T20:37:49.775Z,42.90
2019-04-28T20:40:22.901Z,43.00
2019-04-28T20:42:53.131Z,43.20
2019-04-28T20:45:21.877Z,42.90
2019-04-28T20:47:50.586Z,42.80
2019-04-28T20:50:19.316Z,42.60
2019-04-28T20:52:48.215Z,42.70
2019-04-28T20:55:16.932Z,42.60
2019-04-28T20:57:45.849Z,42.90
2019-04-28T21:00:14.789Z,42.80
2019-04-28T21:02:43.790Z,42.50
2019-04-28T21:05:12.522Z,42.40
2019-04-28T21:07:41.417Z,42.50
2019-04-28T21:10:10.555Z,42.60
2019-04-28T21:12:39.211Z,42.70
2019-04-28T21:15:08.891Z,43.00
2019-04-28T21:17:37.789Z,42.80
2019-04-28T21:20:07.384Z,42.80
2019-04-28T21:22:36.070Z,43.10
2019-04-28T21:25:06.127Z,43.50
2019-04-28T21:27:35.008Z,43.20
2019-04-28T21:30:05.472Z,43.50
2019-04-28T21:32:34.188Z,43.30
2019-04-28T21:35:02.898Z,43.30
2019-04-28T21:37:31.570Z,43.70
2019-04-28T21:40:00.271Z,43.70
2019-04-28T21:42:30.582Z,43.60
2019-04-28T21:45:00.810Z,43.60
2019-04-28T21:47:33.635Z,43.70
2019-04-28T21:50:02.305Z,43.50
2019-04-28T21:52:31.022Z,43.60
2019-04-28T21:54:59.699Z,43.70
2019-04-28T21:57:28.393Z,43.60
2019-04-28T21:59:57.186Z,43.70
2019-04-28T22:02:25.909Z,43.60
2019-04-28T22:04:54.618Z,43.80
2019-04-28T22:07:23.390Z,43.80
2019-04-28T22:09:52.053Z,43.80
2019-04-28T22:12:20.756Z,44.00
2019-04-28T22:14:49.633Z,44.20
2019-04-28T22:17:18.378Z,43.80
2019-04-28T22:19:47.154Z,44.10
2019-04-28T22:22:15.824Z,43.90
2019-04-28T22:24:46.142Z,44.10
2019-04-28T22:27:15.816Z,44.20
2019-04-28T22:29:44.495Z,44.20
2019-04-28T22:32:13.316Z,44.10
2019-04-28T22:34:41.986Z,44.50
2019-04-28T22:37:10.995Z,44.20
2019-04-28T22:39:39.807Z,44.20
2019-04-28T22:42:08.525Z,44.30
2019-04-28T22:44:37.264Z,44.10
2019-04-28T22:47:05.936Z,44.30
2019-04-28T22:49:34.643Z,44.30
2019-04-28T22:52:03.323Z,44.30
2019-04-28T22:54:33.590Z,44.30
2019-04-28T22:57:03.834Z,44.50
2019-04-28T22:59:34.109Z,44.70
2019-04-28T23:02:04.458Z,44.60
2019-04-28T23:04:37.637Z,44.90
2019-04-28T23:07:06.791Z,44.70
2019-04-28T23:09:35.455Z,44.80
2019-04-28T23:12:05.276Z,45.00
2019-04-28T23:14:34.070Z,44.80
2019-04-28T23:17:03.138Z,44.80
2019-04-28T23:19:33.419Z,45.00
2019-04-28T23:22:09.718Z,45.10
2019-04-28T23:24:38.387Z,45.10
2019-04-28T23:27:07.053Z,45.30
2019-04-28T23:29:36.191Z,45.20
2019-04-28T23:32:05.074Z,45.00
2019-04-28T23:34:36.003Z,45.10
2019-04-28T23:37:04.413Z,45.10
2019-04-28T23:39:33.119Z,45.00
2019-04-28T23:42:03.358Z,44.90
2019-04-28T23:44:32.047Z,45.00
2019-04-28T23:47:02.217Z,44.80
2019-04-28T23:49:31.076Z,45.10
2019-04-28T23:52:17.834Z,45.10
2019-04-28T23:55:00.119Z,44.80
2019-04-28T23:57:29.060Z,44.70
2019-04-28T23:59:57.734Z,44.90
